sensor_id;sensor_type;location;lat;lon;timestamp;P1;durP1;ratioP1;P2;durP2;ratioP2
84774;SDS011;75005;50.966;11.344;2024-03-08T00:01:35;30.08;;;14.40;;
84774;SDS011;75005;50.966;11.344;2024-03-08T00:04:01;24.55;;;13.50;;
84774;SDS011;75005;50.966;11.344;2024-03-08T00:06:26;30.90;;;13.73;;
84774;SDS011;75005;50.966;11.344;2024-03-08T00:08:52;31.10;;;14.27;;
84774;SDS011;75005;50.966;11.344;2024-03-08T00:11:18;27.33;;;14.23;;
84774;SDS011;75005;50.966;11.344;2024-03-08T00:13:43;26.48;;;14.13;;
84774;SDS011;75005;50.966;11.344;2024-03-08T00:16:10;27.20;;;13.82;;
84774;SDS011;75005;50.966;11.344;2024-03-08T00:18:35;32.33;;;15.15;;
84774;SDS011;75005;50.966;11.344;2024-03-08T00:21:01;30.50;;;16.33;;
84774;SDS011;75005;50.966;11.344;2024-03-08T00:23:27;31.52;;;15.80;;
84774;SDS011;75005;50.966;11.344;2024-03-08T00:25:53;30.95;;;15.65;;
84774;SDS011;75005;50.966;11.344;2024-03-08T00:28:20;31.35;;;16.02;;
84774;SDS011;75005;50.966;11.344;2024-03-08T00:30:46;28.08;;;15.18;;
84774;SDS011;75005;50.966;11.344;2024-03-08T00:33:12;26.70;;;14.93;;
84774;SDS011;75005;50.966;11.344;2024-03-08T00:35:38;29.92;;;16.92;;
84774;SDS011;75005;50.966;11.344;2024-03-08T00:38:04;33.65;;;18.35;;
84774;SDS011;75005;50.966;11.344;2024-03-08T00:40:30;33.08;;;15.65;;
84774;SDS011;75005;50.966;11.344;2024-03-08T00:42:55;36.47;;;15.35;;
84774;SDS011;75005;50.966;11.344;2024-03-08T00:45:21;28.02;;;14.60;;
84774;SDS011;75005;50.966;11.344;2024-03-08T00:47:48;24.95;;;13.88;;
84774;SDS011;75005;50.966;11.344;2024-03-08T00:50:13;26.50;;;14.75;;
84774;SDS011;75005;50.966;11.344;2024-03-08T00:52:39;33.25;;;15.52;;
84774;SDS011;75005;50.966;11.344;2024-03-08T00:55:04;38.22;;;17.20;;
84774;SDS011;75005;50.966;11.344;2024-03-08T00:57:30;35.10;;;16.27;;
84774;SDS011;75005;50.966;11.344;2024-03-08T00:59:55;33.88;;;17.70;;
84774;SDS011;75005;50.966;11.344;2024-03-08T01:02:21;29.38;;;14.18;;
84774;SDS011;75005;50.966;11.344;2024-03-08T01:04:48;29.83;;;16.70;;
84774;SDS011;75005;50.966;11.344;2024-03-08T01:07:13;23.63;;;13.98;;
84774;SDS011;75005;50.966;11.344;2024-03-08T01:09:39;36.83;;;18.00;;
84774;SDS011;75005;50.966;11.344;2024-03-08T01:12:04;30.83;;;14.82;;
84774;SDS011;75005;50.966;11.344;2024-03-08T01:14:32;30.65;;;16.00;;
84774;SDS011;75005;50.966;11.344;2024-03-08T01:16:58;27.55;;;15.02;;
84774;SDS011;75005;50.966;11.344;2024-03-08T01:19:24;28.02;;;14.93;;
84774;SDS011;75005;50.966;11.344;2024-03-08T01:21:49;31.33;;;17.13;;
84774;SDS011;75005;50.966;11.344;2024-03-08T01:24:15;31.77;;;15.93;;
84774;SDS011;75005;50.966;11.344;2024-03-08T01:26:40;35.17;;;17.17;;
84774;SDS011;75005;50.966;11.344;2024-03-08T01:29:06;38.60;;;19.17;;
84774;SDS011;75005;50.966;11.344;2024-03-08T01:31:31;43.25;;;21.30;;
84774;SDS011;75005;50.966;11.344;2024-03-08T01:34:00;35.47;;;18.05;;
84774;SDS011;75005;50.966;11.344;2024-03-08T01:36:25;42.15;;;19.33;;
84774;SDS011;75005;50.966;11.344;2024-03-08T01:38:51;35.30;;;20.10;;
84774;SDS011;75005;50.966;11.344;2024-03-08T01:41:17;33.65;;;18.75;;
84774;SDS011;75005;50.966;11.344;2024-03-08T01:43:43;37.50;;;16.38;;
84774;SDS011;75005;50.966;11.344;2024-03-08T01:46:09;30.42;;;14.70;;
84774;SDS011;75005;50.966;11.344;2024-03-08T01:48:37;26.33;;;14.27;;
84774;SDS011;75005;50.966;11.344;2024-03-08T01:51:04;32.45;;;14.98;;
84774;SDS011;75005;50.966;11.344;2024-03-08T01:53:30;27.92;;;15.43;;
84774;SDS011;75005;50.966;11.344;2024-03-08T01:55:57;32.72;;;16.45;;
84774;SDS011;75005;50.966;11.344;2024-03-08T01:58:23;30.05;;;16.45;;
84774;SDS011;75005;50.966;11.344;2024-03-08T02:00:53;35.95;;;18.40;;
84774;SDS011;75005;50.966;11.344;2024-03-08T02:03:19;36.95;;;17.52;;
84774;SDS011;75005;50.966;11.344;2024-03-08T02:05:46;38.05;;;18.70;;
84774;SDS011;75005;50.966;11.344;2024-03-08T02:08:11;33.35;;;16.67;;
84774;SDS011;75005;50.966;11.344;2024-03-08T02:10:39;35.08;;;18.08;;
84774;SDS011;75005;50.966;11.344;2024-03-08T02:13:06;33.17;;;17.15;;
84774;SDS011;75005;50.966;11.344;2024-03-08T02:15:52;34.58;;;17.10;;
84774;SDS011;75005;50.966;11.344;2024-03-08T02:18:25;30.00;;;14.23;;
84774;SDS011;75005;50.966;11.344;2024-03-08T02:20:58;29.35;;;16.83;;
84774;SDS011;75005;50.966;11.344;2024-03-08T02:23:24;39.13;;;17.48;;
84774;SDS011;75005;50.966;11.344;2024-03-08T02:25:51;34.85;;;17.63;;
84774;SDS011;75005;50.966;11.344;2024-03-08T02:28:17;30.52;;;15.88;;
84774;SDS011;75005;50.966;11.344;2024-03-08T02:30:48;31.13;;;15.98;;
84774;SDS011;75005;50.966;11.344;2024-03-08T02:33:16;30.15;;;15.90;;
84774;SDS011;75005;50.966;11.344;2024-03-08T02:35:45;33.90;;;17.27;;
84774;SDS011;75005;50.966;11.344;2024-03-08T02:38:15;33.75;;;16.10;;
84774;SDS011;75005;50.966;11.344;2024-03-08T02:40:42;31.67;;;17.40;;
84774;SDS011;75005;50.966;11.344;2024-03-08T02:43:08;33.45;;;17.33;;
84774;SDS011;75005;50.966;11.344;2024-03-08T02:45:35;34.05;;;16.52;;
84774;SDS011;75005;50.966;11.344;2024-03-08T02:48:00;33.97;;;16.67;;
84774;SDS011;75005;50.966;11.344;2024-03-08T02:50:26;36.67;;;18.05;;
84774;SDS011;75005;50.966;11.344;2024-03-08T02:52:52;33.90;;;16.48;;
84774;SDS011;75005;50.966;11.344;2024-03-08T02:55:17;34.25;;;15.85;;
84774;SDS011;75005;50.966;11.344;2024-03-08T02:57:43;32.25;;;15.20;;
84774;SDS011;75005;50.966;11.344;2024-03-08T03:00:09;34.53;;;15.95;;
84774;SDS011;75005;50.966;11.344;2024-03-08T03:02:36;29.65;;;15.68;;
84774;SDS011;75005;50.966;11.344;2024-03-08T03:05:02;31.92;;;15.88;;
84774;SDS011;75005;50.966;11.344;2024-03-08T03:07:31;34.10;;;16.58;;
84774;SDS011;75005;50.966;11.344;2024-03-08T03:09:58;29.33;;;17.05;;
84774;SDS011;75005;50.966;11.344;2024-03-08T03:12:25;40.15;;;15.75;;
84774;SDS011;75005;50.966;11.344;2024-03-08T03:14:50;34.38;;;15.88;;
84774;SDS011;75005;50.966;11.344;2024-03-08T03:17:17;29.75;;;16.25;;
84774;SDS011;75005;50.966;11.344;2024-03-08T03:19:42;34.83;;;15.80;;
84774;SDS011;75005;50.966;11.344;2024-03-08T03:22:08;31.50;;;16.48;;
84774;SDS011;75005;50.966;11.344;2024-03-08T03:24:35;33.75;;;16.60;;
84774;SDS011;75005;50.966;11.344;2024-03-08T03:27:03;32.50;;;16.27;;
84774;SDS011;75005;50.966;11.344;2024-03-08T03:29:39;29.70;;;15.68;;
84774;SDS011;75005;50.966;11.344;2024-03-08T03:32:07;36.22;;;16.23;;
84774;SDS011;75005;50.966;11.344;2024-03-08T03:34:33;32.03;;;15.25;;
84774;SDS011;75005;50.966;11.344;2024-03-08T03:37:02;37.05;;;17.52;;
84774;SDS011;75005;50.966;11.344;2024-03-08T03:39:29;32.70;;;15.00;;
84774;SDS011;75005;50.966;11.344;2024-03-08T03:41:57;34.00;;;15.82;;
84774;SDS011;75005;50.966;11.344;2024-03-08T03:44:23;33.00;;;15.65;;
84774;SDS011;75005;50.966;11.344;2024-03-08T03:46:49;34.78;;;15.18;;
84774;SDS011;75005;50.966;11.344;2024-03-08T03:49:18;36.70;;;15.45;;
84774;SDS011;75005;50.966;11.344;2024-03-08T03:51:44;31.42;;;14.77;;
84774;SDS011;75005;50.966;11.344;2024-03-08T03:54:10;32.00;;;15.25;;
84774;SDS011;75005;50.966;11.344;2024-03-08T03:56:39;31.35;;;15.32;;
84774;SDS011;75005;50.966;11.344;2024-03-08T03:59:07;33.03;;;16.20;;
84774;SDS011;75005;50.966;11.344;2024-03-08T04:01:41;25.98;;;13.75;;
84774;SDS011;75005;50.966;11.344;2024-03-08T04:04:07;29.52;;;16.58;;
84774;SDS011;75005;50.966;11.344;2024-03-08T04:06:33;31.67;;;15.73;;
84774;SDS011;75005;50.966;11.344;2024-03-08T04:08:59;31.33;;;15.13;;
84774;SDS011;75005;50.966;11.344;2024-03-08T04:11:24;34.00;;;15.70;;
84774;SDS011;75005;50.966;11.344;2024-03-08T04:13:50;33.75;;;15.25;;
84774;SDS011;75005;50.966;11.344;2024-03-08T04:16:15;28.95;;;15.35;;
84774;SDS011;75005;50.966;11.344;2024-03-08T04:18:41;29.30;;;14.98;;
84774;SDS011;75005;50.966;11.344;2024-03-08T04:21:08;29.60;;;15.57;;
84774;SDS011;75005;50.966;11.344;2024-03-08T04:23:34;30.92;;;16.52;;
84774;SDS011;75005;50.966;11.344;2024-03-08T04:26:02;30.02;;;14.65;;
84774;SDS011;75005;50.966;11.344;2024-03-08T04:28:29;33.65;;;16.75;;
84774;SDS011;75005;50.966;11.344;2024-03-08T04:30:56;31.48;;;16.55;;
84774;SDS011;75005;50.966;11.344;2024-03-08T04:33:21;33.83;;;15.25;;
84774;SDS011;75005;50.966;11.344;2024-03-08T04:35:48;33.67;;;17.20;;
84774;SDS011;75005;50.966;11.344;2024-03-08T04:38:14;29.55;;;16.10;;
84774;SDS011;75005;50.966;11.344;2024-03-08T04:40:40;28.83;;;15.85;;
84774;SDS011;75005;50.966;11.344;2024-03-08T04:43:05;30.30;;;14.70;;
84774;SDS011;75005;50.966;11.344;2024-03-08T04:45:33;30.27;;;14.90;;
84774;SDS011;75005;50.966;11.344;2024-03-08T04:47:58;33.97;;;16.20;;
84774;SDS011;75005;50.966;11.344;2024-03-08T04:50:24;33.13;;;13.90;;
84774;SDS011;75005;50.966;11.344;2024-03-08T04:52:50;31.88;;;16.05;;
84774;SDS011;75005;50.966;11.344;2024-03-08T04:55:15;34.55;;;15.55;;
84774;SDS011;75005;50.966;11.344;2024-03-08T04:57:40;33.92;;;18.27;;
84774;SDS011;75005;50.966;11.344;2024-03-08T05:00:08;37.63;;;16.52;;
84774;SDS011;75005;50.966;11.344;2024-03-08T05:02:38;30.75;;;16.25;;
84774;SDS011;75005;50.966;11.344;2024-03-08T05:05:04;37.10;;;16.02;;
84774;SDS011;75005;50.966;11.344;2024-03-08T05:07:31;32.25;;;15.38;;
84774;SDS011;75005;50.966;11.344;2024-03-08T05:09:57;30.83;;;16.08;;
84774;SDS011;75005;50.966;11.344;2024-03-08T05:12:23;32.97;;;16.20;;
84774;SDS011;75005;50.966;11.344;2024-03-08T05:14:48;30.47;;;16.07;;
84774;SDS011;75005;50.966;11.344;2024-03-08T05:17:15;31.45;;;15.57;;
84774;SDS011;75005;50.966;11.344;2024-03-08T05:19:41;27.98;;;14.70;;
84774;SDS011;75005;50.966;11.344;2024-03-08T05:22:07;33.15;;;16.35;;
84774;SDS011;75005;50.966;11.344;2024-03-08T05:24:33;35.28;;;16.27;;
84774;SDS011;75005;50.966;11.344;2024-03-08T05:26:59;29.42;;;17.38;;
84774;SDS011;75005;50.966;11.344;2024-03-08T05:29:25;33.20;;;15.73;;
84774;SDS011;75005;50.966;11.344;2024-03-08T05:31:51;31.23;;;16.08;;
84774;SDS011;75005;50.966;11.344;2024-03-08T05:34:17;34.00;;;16.27;;
84774;SDS011;75005;50.966;11.344;2024-03-08T05:36:44;32.47;;;14.82;;
84774;SDS011;75005;50.966;11.344;2024-03-08T05:39:11;32.60;;;16.60;;
84774;SDS011;75005;50.966;11.344;2024-03-08T05:41:40;29.70;;;15.50;;
84774;SDS011;75005;50.966;11.344;2024-03-08T05:44:05;40.30;;;17.38;;
84774;SDS011;75005;50.966;11.344;2024-03-08T05:46:31;34.42;;;16.02;;
84774;SDS011;75005;50.966;11.344;2024-03-08T05:48:57;32.90;;;16.60;;
84774;SDS011;75005;50.966;11.344;2024-03-08T05:51:24;35.40;;;18.05;;
84774;SDS011;75005;50.966;11.344;2024-03-08T05:53:52;36.95;;;16.83;;
84774;SDS011;75005;50.966;11.344;2024-03-08T05:56:18;39.03;;;16.67;;
84774;SDS011;75005;50.966;11.344;2024-03-08T05:58:44;40.22;;;19.10;;
84774;SDS011;75005;50.966;11.344;2024-03-08T06:01:10;40.30;;;18.48;;
84774;SDS011;75005;50.966;11.344;2024-03-08T06:03:37;40.17;;;18.50;;
84774;SDS011;75005;50.966;11.344;2024-03-08T06:06:10;36.72;;;19.52;;
84774;SDS011;75005;50.966;11.344;2024-03-08T06:08:38;42.88;;;20.48;;
84774;SDS011;75005;50.966;11.344;2024-03-08T06:11:03;41.20;;;20.38;;
84774;SDS011;75005;50.966;11.344;2024-03-08T06:13:30;44.20;;;21.10;;
84774;SDS011;75005;50.966;11.344;2024-03-08T06:15:56;41.45;;;18.58;;
84774;SDS011;75005;50.966;11.344;2024-03-08T06:18:22;36.28;;;18.67;;
84774;SDS011;75005;50.966;11.344;2024-03-08T06:20:47;35.72;;;18.25;;
84774;SDS011;75005;50.966;11.344;2024-03-08T06:23:13;45.90;;;19.92;;
84774;SDS011;75005;50.966;11.344;2024-03-08T06:25:42;36.28;;;17.80;;
84774;SDS011;75005;50.966;11.344;2024-03-08T06:28:11;37.08;;;18.08;;
84774;SDS011;75005;50.966;11.344;2024-03-08T06:30:36;35.38;;;18.05;;
84774;SDS011;75005;50.966;11.344;2024-03-08T06:33:02;35.70;;;16.95;;
84774;SDS011;75005;50.966;11.344;2024-03-08T06:35:27;41.60;;;17.88;;
84774;SDS011;75005;50.966;11.344;2024-03-08T06:37:53;34.65;;;16.90;;
84774;SDS011;75005;50.966;11.344;2024-03-08T06:40:18;36.55;;;17.67;;
84774;SDS011;75005;50.966;11.344;2024-03-08T06:42:44;39.58;;;19.02;;
84774;SDS011;75005;50.966;11.344;2024-03-08T06:45:10;36.92;;;18.38;;
84774;SDS011;75005;50.966;11.344;2024-03-08T06:47:37;36.85;;;18.42;;
84774;SDS011;75005;50.966;11.344;2024-03-08T06:50:02;33.22;;;17.17;;
84774;SDS011;75005;50.966;11.344;2024-03-08T06:52:29;32.53;;;16.70;;
84774;SDS011;75005;50.966;11.344;2024-03-08T06:54:54;34.00;;;17.67;;
84774;SDS011;75005;50.966;11.344;2024-03-08T06:57:19;37.28;;;18.20;;
84774;SDS011;75005;50.966;11.344;2024-03-08T06:59:48;37.90;;;18.40;;
84774;SDS011;75005;50.966;11.344;2024-03-08T07:02:14;34.83;;;16.33;;
84774;SDS011;75005;50.966;11.344;2024-03-08T07:04:40;35.30;;;19.00;;
84774;SDS011;75005;50.966;11.344;2024-03-08T07:07:05;48.72;;;21.27;;
84774;SDS011;75005;50.966;11.344;2024-03-08T07:09:34;38.50;;;21.58;;
84774;SDS011;75005;50.966;11.344;2024-03-08T07:12:03;47.65;;;19.27;;
84774;SDS011;75005;50.966;11.344;2024-03-08T07:14:29;42.08;;;21.05;;
84774;SDS011;75005;50.966;11.344;2024-03-08T07:16:55;47.22;;;21.20;;
84774;SDS011;75005;50.966;11.344;2024-03-08T07:19:21;40.72;;;20.92;;
84774;SDS011;75005;50.966;11.344;2024-03-08T07:21:46;46.33;;;21.77;;
84774;SDS011;75005;50.966;11.344;2024-03-08T07:24:12;38.63;;;20.58;;
84774;SDS011;75005;50.966;11.344;2024-03-08T07:26:38;41.95;;;21.73;;
84774;SDS011;75005;50.966;11.344;2024-03-08T07:29:04;50.85;;;23.45;;
84774;SDS011;75005;50.966;11.344;2024-03-08T07:31:29;51.30;;;23.90;;
84774;SDS011;75005;50.966;11.344;2024-03-08T07:34:06;53.15;;;24.83;;
84774;SDS011;75005;50.966;11.344;2024-03-08T07:36:33;56.17;;;27.83;;
84774;SDS011;75005;50.966;11.344;2024-03-08T07:38:59;57.78;;;25.38;;
84774;SDS011;75005;50.966;11.344;2024-03-08T07:41:24;60.22;;;25.05;;
84774;SDS011;75005;50.966;11.344;2024-03-08T07:43:49;48.70;;;24.85;;
84774;SDS011;75005;50.966;11.344;2024-03-08T07:46:15;45.72;;;22.48;;
84774;SDS011;75005;50.966;11.344;2024-03-08T07:48:43;53.80;;;24.23;;
84774;SDS011;75005;50.966;11.344;2024-03-08T07:51:10;49.33;;;22.90;;
84774;SDS011;75005;50.966;11.344;2024-03-08T07:53:37;55.42;;;22.52;;
84774;SDS011;75005;50.966;11.344;2024-03-08T07:56:03;49.00;;;23.35;;
84774;SDS011;75005;50.966;11.344;2024-03-08T07:58:30;47.55;;;23.67;;
84774;SDS011;75005;50.966;11.344;2024-03-08T08:00:55;48.00;;;24.05;;
84774;SDS011;75005;50.966;11.344;2024-03-08T08:03:21;47.70;;;23.65;;
84774;SDS011;75005;50.966;11.344;2024-03-08T08:05:46;47.08;;;22.67;;
84774;SDS011;75005;50.966;11.344;2024-03-08T08:08:14;43.88;;;21.70;;
84774;SDS011;75005;50.966;11.344;2024-03-08T08:10:40;40.63;;;19.55;;
84774;SDS011;75005;50.966;11.344;2024-03-08T08:13:08;42.78;;;20.40;;
84774;SDS011;75005;50.966;11.344;2024-03-08T08:15:33;50.92;;;22.55;;
84774;SDS011;75005;50.966;11.344;2024-03-08T08:18:00;48.45;;;25.15;;
84774;SDS011;75005;50.966;11.344;2024-03-08T08:20:27;48.40;;;24.15;;
84774;SDS011;75005;50.966;11.344;2024-03-08T08:22:56;52.10;;;23.65;;
84774;SDS011;75005;50.966;11.344;2024-03-08T08:25:24;53.58;;;24.65;;
84774;SDS011;75005;50.966;11.344;2024-03-08T08:27:52;42.08;;;20.85;;
84774;SDS011;75005;50.966;11.344;2024-03-08T08:30:18;41.80;;;21.15;;
84774;SDS011;75005;50.966;11.344;2024-03-08T08:32:47;44.38;;;21.15;;
84774;SDS011;75005;50.966;11.344;2024-03-08T08:35:16;44.20;;;22.10;;
84774;SDS011;75005;50.966;11.344;2024-03-08T08:37:43;38.25;;;20.27;;
84774;SDS011;75005;50.966;11.344;2024-03-08T08:40:09;35.35;;;18.13;;
84774;SDS011;75005;50.966;11.344;2024-03-08T08:42:58;37.38;;;20.15;;
84774;SDS011;75005;50.966;11.344;2024-03-08T08:45:24;35.72;;;19.60;;
84774;SDS011;75005;50.966;11.344;2024-03-08T08:47:50;39.63;;;20.23;;
84774;SDS011;75005;50.966;11.344;2024-03-08T08:50:27;37.30;;;19.25;;
84774;SDS011;75005;50.966;11.344;2024-03-08T08:52:53;38.58;;;19.45;;
84774;SDS011;75005;50.966;11.344;2024-03-08T08:55:19;37.08;;;18.40;;
84774;SDS011;75005;50.966;11.344;2024-03-08T08:57:51;37.45;;;19.95;;
84774;SDS011;75005;50.966;11.344;2024-03-08T09:00:24;39.70;;;19.10;;
84774;SDS011;75005;50.966;11.344;2024-03-08T09:02:52;41.58;;;19.90;;
84774;SDS011;75005;50.966;11.344;2024-03-08T09:05:20;36.40;;;18.25;;
84774;SDS011;75005;50.966;11.344;2024-03-08T09:07:46;40.65;;;19.73;;
84774;SDS011;75005;50.966;11.344;2024-03-08T09:10:12;37.67;;;18.00;;
84774;SDS011;75005;50.966;11.344;2024-03-08T09:12:38;36.45;;;19.30;;
84774;SDS011;75005;50.966;11.344;2024-03-08T09:15:04;34.45;;;18.05;;
84774;SDS011;75005;50.966;11.344;2024-03-08T09:17:53;35.45;;;16.92;;
84774;SDS011;75005;50.966;11.344;2024-03-08T09:20:19;35.72;;;16.77;;
84774;SDS011;75005;50.966;11.344;2024-03-08T09:22:45;38.00;;;19.00;;
84774;SDS011;75005;50.966;11.344;2024-03-08T09:25:11;31.35;;;17.10;;
84774;SDS011;75005;50.966;11.344;2024-03-08T09:27:36;40.67;;;20.23;;
84774;SDS011;75005;50.966;11.344;2024-03-08T09:30:02;36.50;;;18.75;;
84774;SDS011;75005;50.966;11.344;2024-03-08T09:32:29;30.88;;;17.02;;
84774;SDS011;75005;50.966;11.344;2024-03-08T09:34:55;31.77;;;16.77;;
84774;SDS011;75005;50.966;11.344;2024-03-08T09:37:21;30.60;;;15.73;;
84774;SDS011;75005;50.966;11.344;2024-03-08T09:39:46;29.60;;;14.48;;
84774;SDS011;75005;50.966;11.344;2024-03-08T09:42:12;29.45;;;16.08;;
84774;SDS011;75005;50.966;11.344;2024-03-08T09:44:44;27.20;;;15.85;;
84774;SDS011;75005;50.966;11.344;2024-03-08T09:47:15;25.00;;;13.98;;
84774;SDS011;75005;50.966;11.344;2024-03-08T09:49:41;26.00;;;14.50;;
84774;SDS011;75005;50.966;11.344;2024-03-08T09:52:08;25.63;;;14.93;;
84774;SDS011;75005;50.966;11.344;2024-03-08T09:54:35;26.88;;;14.45;;
84774;SDS011;75005;50.966;11.344;2024-03-08T09:57:00;26.17;;;14.45;;
84774;SDS011;75005;50.966;11.344;2024-03-08T09:59:29;26.90;;;13.02;;
84774;SDS011;75005;50.966;11.344;2024-03-08T10:02:03;28.52;;;14.38;;
84774;SDS011;75005;50.966;11.344;2024-03-08T10:04:29;25.10;;;13.07;;
84774;SDS011;75005;50.966;11.344;2024-03-08T10:06:58;27.70;;;13.63;;
84774;SDS011;75005;50.966;11.344;2024-03-08T10:09:24;25.17;;;13.07;;
84774;SDS011;75005;50.966;11.344;2024-03-08T10:11:56;22.00;;;12.25;;
84774;SDS011;75005;50.966;11.344;2024-03-08T10:14:25;22.38;;;12.63;;
84774;SDS011;75005;50.966;11.344;2024-03-08T10:16:53;27.25;;;13.57;;
84774;SDS011;75005;50.966;11.344;2024-03-08T10:19:19;23.45;;;12.02;;
84774;SDS011;75005;50.966;11.344;2024-03-08T10:21:48;25.83;;;11.02;;
84774;SDS011;75005;50.966;11.344;2024-03-08T10:24:14;18.50;;;10.23;;
84774;SDS011;75005;50.966;11.344;2024-03-08T10:26:39;21.20;;;10.55;;
84774;SDS011;75005;50.966;11.344;2024-03-08T10:29:05;22.67;;;11.90;;
84774;SDS011;75005;50.966;11.344;2024-03-08T10:31:32;21.67;;;11.70;;
84774;SDS011;75005;50.966;11.344;2024-03-08T10:33:58;25.95;;;10.77;;
84774;SDS011;75005;50.966;11.344;2024-03-08T10:36:23;20.92;;;10.65;;
84774;SDS011;75005;50.966;11.344;2024-03-08T10:38:50;23.90;;;11.73;;
84774;SDS011;75005;50.966;11.344;2024-03-08T10:41:18;24.23;;;12.20;;
84774;SDS011;75005;50.966;11.344;2024-03-08T10:49:11;26.25;;;11.73;;
84774;SDS011;75005;50.966;11.344;2024-03-08T10:51:42;25.17;;;13.32;;
84774;SDS011;75005;50.966;11.344;2024-03-08T10:54:09;21.52;;;10.35;;
84774;SDS011;75005;50.966;11.344;2024-03-08T10:56:36;21.98;;;11.95;;
84774;SDS011;75005;50.966;11.344;2024-03-08T10:59:02;22.58;;;12.02;;
84774;SDS011;75005;50.966;11.344;2024-03-08T11:01:29;24.58;;;13.05;;
84774;SDS011;75005;50.966;11.344;2024-03-08T11:03:55;24.95;;;12.60;;
84774;SDS011;75005;50.966;11.344;2024-03-08T11:09:51;24.38;;;12.38;;
84774;SDS011;75005;50.966;11.344;2024-03-08T11:14:50;21.67;;;11.10;;
84774;SDS011;75005;50.966;11.344;2024-03-08T11:17:40;23.85;;;10.73;;
84774;SDS011;75005;50.966;11.344;2024-03-08T11:25:35;17.95;;;9.23;;
84774;SDS011;75005;50.966;11.344;2024-03-08T11:28:21;26.23;;;10.73;;
84774;SDS011;75005;50.966;11.344;2024-03-08T11:33:29;21.83;;;11.70;;
84774;SDS011;75005;50.966;11.344;2024-03-08T11:36:29;21.58;;;11.23;;
84774;SDS011;75005;50.966;11.344;2024-03-08T11:38:49;17.55;;;10.32;;
84774;SDS011;75005;50.966;11.344;2024-03-08T11:41:20;20.15;;;10.90;;
84774;SDS011;75005;50.966;11.344;2024-03-08T11:43:48;21.60;;;11.27;;
84774;SDS011;75005;50.966;11.344;2024-03-08T11:46:15;21.85;;;12.70;;
84774;SDS011;75005;50.966;11.344;2024-03-08T11:48:42;22.80;;;11.70;;
84774;SDS011;75005;50.966;11.344;2024-03-08T11:51:08;21.83;;;11.82;;
84774;SDS011;75005;50.966;11.344;2024-03-08T11:53:36;25.25;;;11.73;;
84774;SDS011;75005;50.966;11.344;2024-03-08T11:56:09;20.00;;;11.70;;
84774;SDS011;75005;50.966;11.344;2024-03-08T11:58:36;25.83;;;11.73;;
84774;SDS011;75005;50.966;11.344;2024-03-08T12:01:03;23.25;;;11.75;;
84774;SDS011;75005;50.966;11.344;2024-03-08T12:03:32;28.30;;;13.15;;
84774;SDS011;75005;50.966;11.344;2024-03-08T12:05:59;24.00;;;12.00;;
84774;SDS011;75005;50.966;11.344;2024-03-08T12:08:25;28.02;;;12.20;;
84774;SDS011;75005;50.966;11.344;2024-03-08T12:10:53;21.58;;;11.27;;
84774;SDS011;75005;50.966;11.344;2024-03-08T12:13:24;20.33;;;11.65;;
84774;SDS011;75005;50.966;11.344;2024-03-08T12:15:57;22.63;;;12.43;;
84774;SDS011;75005;50.966;11.344;2024-03-08T12:18:24;18.23;;;10.65;;
84774;SDS011;75005;50.966;11.344;2024-03-08T12:23:36;20.48;;;12.60;;
84774;SDS011;75005;50.966;11.344;2024-03-08T12:26:14;19.65;;;11.77;;
84774;SDS011;75005;50.966;11.344;2024-03-08T12:28:41;22.88;;;12.07;;
84774;SDS011;75005;50.966;11.344;2024-03-08T12:31:09;22.77;;;11.73;;
84774;SDS011;75005;50.966;11.344;2024-03-08T12:33:49;26.33;;;12.57;;
84774;SDS011;75005;50.966;11.344;2024-03-08T12:36:16;20.75;;;11.95;;
84774;SDS011;75005;50.966;11.344;2024-03-08T12:38:45;26.35;;;13.48;;
84774;SDS011;75005;50.966;11.344;2024-03-08T12:41:14;22.92;;;12.55;;
84774;SDS011;75005;50.966;11.344;2024-03-08T12:43:40;23.13;;;11.60;;
84774;SDS011;75005;50.966;11.344;2024-03-08T12:46:06;18.88;;;11.20;;
84774;SDS011;75005;50.966;11.344;2024-03-08T12:48:34;22.98;;;11.82;;
84774;SDS011;75005;50.966;11.344;2024-03-08T12:51:00;25.88;;;13.05;;
84774;SDS011;75005;50.966;11.344;2024-03-08T12:53:26;22.73;;;12.27;;
84774;SDS011;75005;50.966;11.344;2024-03-08T12:55:54;26.92;;;13.15;;
84774;SDS011;75005;50.966;11.344;2024-03-08T12:58:21;23.55;;;12.85;;
84774;SDS011;75005;50.966;11.344;2024-03-08T13:00:47;23.27;;;11.50;;
84774;SDS011;75005;50.966;11.344;2024-03-08T13:03:14;22.45;;;12.63;;
84774;SDS011;75005;50.966;11.344;2024-03-08T13:05:39;25.55;;;12.13;;
84774;SDS011;75005;50.966;11.344;2024-03-08T13:08:07;23.40;;;12.73;;
84774;SDS011;75005;50.966;11.344;2024-03-08T13:10:40;23.52;;;11.65;;
84774;SDS011;75005;50.966;11.344;2024-03-08T13:13:09;23.60;;;12.35;;
84774;SDS011;75005;50.966;11.344;2024-03-08T13:15:35;19.85;;;11.88;;
84774;SDS011;75005;50.966;11.344;2024-03-08T13:18:01;25.77;;;13.38;;
84774;SDS011;75005;50.966;11.344;2024-03-08T13:20:26;19.92;;;12.15;;
84774;SDS011;75005;50.966;11.344;2024-03-08T13:22:56;23.95;;;13.55;;
84774;SDS011;75005;50.966;11.344;2024-03-08T13:25:24;21.27;;;10.82;;
84774;SDS011;75005;50.966;11.344;2024-03-08T13:27:50;25.90;;;12.43;;
84774;SDS011;75005;50.966;11.344;2024-03-08T13:30:15;21.98;;;12.43;;
84774;SDS011;75005;50.966;11.344;2024-03-08T13:32:43;20.55;;;11.63;;
84774;SDS011;75005;50.966;11.344;2024-03-08T13:35:10;22.70;;;11.65;;
84774;SDS011;75005;50.966;11.344;2024-03-08T13:37:39;20.38;;;10.88;;
84774;SDS011;75005;50.966;11.344;2024-03-08T13:40:06;18.08;;;11.13;;
84774;SDS011;75005;50.966;11.344;2024-03-08T13:42:36;18.35;;;10.07;;
84774;SDS011;75005;50.966;11.344;2024-03-08T13:45:03;18.45;;;11.30;;
84774;SDS011;75005;50.966;11.344;2024-03-08T13:47:30;21.63;;;12.32;;
84774;SDS011;75005;50.966;11.344;2024-03-08T13:49:56;19.08;;;12.45;;
84774;SDS011;75005;50.966;11.344;2024-03-08T13:52:21;20.40;;;12.25;;
84774;SDS011;75005;50.966;11.344;2024-03-08T13:54:50;24.98;;;13.70;;
84774;SDS011;75005;50.966;11.344;2024-03-08T13:57:16;22.17;;;11.48;;
84774;SDS011;75005;50.966;11.344;2024-03-08T13:59:43;20.63;;;11.38;;
84774;SDS011;75005;50.966;11.344;2024-03-08T14:02:09;18.38;;;11.75;;
84774;SDS011;75005;50.966;11.344;2024-03-08T14:04:38;26.08;;;13.57;;
84774;SDS011;75005;50.966;11.344;2024-03-08T14:07:05;23.65;;;12.80;;
84774;SDS011;75005;50.966;11.344;2024-03-08T14:09:33;21.05;;;10.88;;
84774;SDS011;75005;50.966;11.344;2024-03-08T14:12:02;23.08;;;12.70;;
84774;SDS011;75005;50.966;11.344;2024-03-08T14:14:32;19.52;;;11.32;;
84774;SDS011;75005;50.966;11.344;2024-03-08T14:17:00;23.48;;;13.23;;
84774;SDS011;75005;50.966;11.344;2024-03-08T14:19:27;22.13;;;12.60;;
84774;SDS011;75005;50.966;11.344;2024-03-08T14:22:01;19.13;;;11.32;;
84774;SDS011;75005;50.966;11.344;2024-03-08T14:24:29;22.42;;;11.88;;
84774;SDS011;75005;50.966;11.344;2024-03-08T14:26:55;20.17;;;12.60;;
84774;SDS011;75005;50.966;11.344;2024-03-08T14:29:24;24.55;;;11.90;;
84774;SDS011;75005;50.966;11.344;2024-03-08T14:31:54;23.95;;;12.13;;